sensor_id;sensor_type;location;lat;lon;timestamp;noise_LAeq;noise_LA_min;noise_LA_max;noise_LA01;noise_LA95
49568;Laerm;35474;51.032;6.998;2023-05-16T00:00:34;54.75;39.58;77.61;;
49568;Laerm;35474;51.032;6.998;2023-05-16T00:03:01;63.17;40.33;83.43;;
49568;Laerm;35474;51.032;6.998;2023-05-16T00:05:28;57.08;41.22;71.48;;
49568;Laerm;35474;51.032;6.998;2023-05-16T00:07:55;60.98;42.16;86.83;;
49568;Laerm;35474;51.032;6.998;2023-05-16T00:10:22;66.83;43.49;88.14;;
49568;Laerm;35474;51.032;6.998;2023-05-16T00:12:49;77.24;43.77;102.50;;
49568;Laerm;35474;51.032;6.998;2023-05-16T00:15:18;69.39;45.89;90.75;;
49568;Laerm;35474;51.032;6.998;2023-05-16T00:17:45;59.18;43.54;76.37;;
49568;Laerm;35474;51.032;6.998;2023-05-16T00:20:13;53.48;43.39;79.56;;
49568;Laerm;35474;51.032;6.998;2023-05-16T00:22:42;50.17;43.14;69.18;;
49568;Laerm;35474;51.032;6.998;2023-05-16T00:25:09;62.37;41.96;85.44;;
49568;Laerm;35474;51.032;6.998;2023-05-16T00:27:35;69.24;41.61;94.07;;
49568;Laerm;35474;51.032;6.998;2023-05-16T00:30:06;76.57;41.46;98.75;;
49568;Laerm;35474;51.032;6.998;2023-05-16T00:32:32;63.38;40.80;85.28;;
49568;Laerm;35474;51.032;6.998;2023-05-16T00:34:59;62.56;40.43;81.76;;
49568;Laerm;35474;51.032;6.998;2023-05-16T00:37:26;62.26;40.13;84.79;;
49568;Laerm;35474;51.032;6.998;2023-05-16T00:39:53;64.86;41.06;89.27;;
49568;Laerm;35474;51.032;6.998;2023-05-16T00:42:19;66.33;40.33;89.37;;
49568;Laerm;35474;51.032;6.998;2023-05-16T00:44:47;65.78;39.81;88.46;;
49568;Laerm;35474;51.032;6.998;2023-05-16T00:47:14;74.30;40.03;94.88;;
49568;Laerm;35474;51.032;6.998;2023-05-16T00:49:41;53.34;39.58;71.60;;
49568;Laerm;35474;51.032;6.998;2023-05-16T00:52:07;72.00;41.68;92.32;;
49568;Laerm;35474;51.032;6.998;2023-05-16T00:54:34;69.34;41.14;90.39;;
49568;Laerm;35474;51.032;6.998;2023-05-16T00:57:02;67.61;42.47;90.07;;
49568;Laerm;35474;51.032;6.998;2023-05-16T00:59:28;65.92;43.77;85.08;;
49568;Laerm;35474;51.032;6.998;2023-05-16T01:01:55;59.16;44.47;79.63;;
49568;Laerm;35474;51.032;6.998;2023-05-16T01:04:22;61.49;44.62;81.60;;
49568;Laerm;35474;51.032;6.998;2023-05-16T01:06:48;60.46;46.07;82.79;;
49568;Laerm;35474;51.032;6.998;2023-05-16T01:09:15;60.88;46.80;81.18;;
49568;Laerm;35474;51.032;6.998;2023-05-16T01:11:49;59.04;46.35;81.05;;
49568;Laerm;35474;51.032;6.998;2023-05-16T01:17:07;57.33;46.43;72.48;;
49568;Laerm;35474;51.032;6.998;2023-05-16T01:27:57;58.49;44.65;72.00;;
49568;Laerm;35474;51.032;6.998;2023-05-16T01:30:24;61.76;45.04;84.32;;
49568;Laerm;35474;51.032;6.998;2023-05-16T01:32:51;58.24;45.77;81.45;;
49568;Laerm;35474;51.032;6.998;2023-05-16T01:35:18;55.68;47.30;73.05;;
49568;Laerm;35474;51.032;6.998;2023-05-16T01:40:31;62.86;47.65;84.37;;
49568;Laerm;35474;51.032;6.998;2023-05-16T01:43:04;58.43;45.94;84.89;;
49568;Laerm;35474;51.032;6.998;2023-05-16T01:45:34;63.44;45.65;81.94;;
49568;Laerm;35474;51.032;6.998;2023-05-16T01:48:06;53.86;45.27;72.63;;
49568;Laerm;35474;51.032;6.998;2023-05-16T01:50:41;73.91;45.72;93.71;;
49568;Laerm;35474;51.032;6.998;2023-05-16T01:53:15;62.67;44.43;83.84;;
49568;Laerm;35474;51.032;6.998;2023-05-16T01:56:01;57.90;42.82;77.92;;
49568;Laerm;35474;51.032;6.998;2023-05-16T01:58:31;64.59;44.39;86.70;;
49568;Laerm;35474;51.032;6.998;2023-05-16T02:01:00;61.97;44.43;81.86;;
49568;Laerm;35474;51.032;6.998;2023-05-16T02:03:28;60.55;44.04;83.43;;
49568;Laerm;35474;51.032;6.998;2023-05-16T02:05:56;62.00;44.62;81.26;;
49568;Laerm;35474;51.032;6.998;2023-05-16T02:08:27;58.15;44.39;78.09;;
49568;Laerm;35474;51.032;6.998;2023-05-16T02:10:54;58.43;44.76;77.40;;
49568;Laerm;35474;51.032;6.998;2023-05-16T02:13:20;60.31;44.43;79.76;;
49568;Laerm;35474;51.032;6.998;2023-05-16T02:15:47;56.76;43.72;71.39;;
49568;Laerm;35474;51.032;6.998;2023-05-16T02:18:13;66.76;44.73;85.77;;
49568;Laerm;35474;51.032;6.998;2023-05-16T02:20:40;65.83;44.03;89.44;;
49568;Laerm;35474;51.032;6.998;2023-05-16T02:23:07;71.91;45.20;92.64;;
49568;Laerm;35474;51.032;6.998;2023-05-16T02:25:33;60.89;43.39;78.55;;
49568;Laerm;35474;51.032;6.998;2023-05-16T02:28:00;61.45;45.30;80.53;;
49568;Laerm;35474;51.032;6.998;2023-05-16T02:30:26;69.29;44.73;90.96;;
49568;Laerm;35474;51.032;6.998;2023-05-16T02:32:53;63.53;44.62;88.70;;
49568;Laerm;35474;51.032;6.998;2023-05-16T02:35:19;59.98;44.15;83.96;;
49568;Laerm;35474;51.032;6.998;2023-05-16T02:37:46;62.85;44.43;86.94;;
49568;Laerm;35474;51.032;6.998;2023-05-16T02:40:13;61.29;45.89;74.92;;
49568;Laerm;35474;51.032;6.998;2023-05-16T02:42:40;60.73;45.72;82.90;;
49568;Laerm;35474;51.032;6.998;2023-05-16T02:45:07;64.69;45.39;75.53;;
49568;Laerm;35474;51.032;6.998;2023-05-16T02:47:34;56.58;45.60;74.77;;
49568;Laerm;35474;51.032;6.998;2023-05-16T02:50:01;58.90;45.72;88.43;;
49568;Laerm;35474;51.032;6.998;2023-05-16T02:52:28;64.35;44.97;77.81;;
49568;Laerm;35474;51.032;6.998;2023-05-16T02:57:36;64.06;43.72;82.44;;
49568;Laerm;35474;51.032;6.998;2023-05-16T03:00:03;64.30;44.19;80.80;;
49568;Laerm;35474;51.032;6.998;2023-05-16T03:02:31;57.43;43.72;72.10;;
49568;Laerm;35474;51.032;6.998;2023-05-16T03:04:58;61.50;43.49;79.60;;
49568;Laerm;35474;51.032;6.998;2023-05-16T03:07:24;62.94;45.25;83.35;;
49568;Laerm;35474;51.032;6.998;2023-05-16T03:09:51;64.70;43.34;79.15;;
49568;Laerm;35474;51.032;6.998;2023-05-16T03:12:17;61.65;43.54;72.20;;
49568;Laerm;35474;51.032;6.998;2023-05-16T03:14:43;62.34;42.65;74.18;;
49568;Laerm;35474;51.032;6.998;2023-05-16T03:17:10;54.24;42.47;68.06;;
49568;Laerm;35474;51.032;6.998;2023-05-16T03:19:36;60.20;42.29;70.68;;
49568;Laerm;35474;51.032;6.998;2023-05-16T03:22:03;60.82;44.11;71.01;;
49568;Laerm;35474;51.032;6.998;2023-05-16T03:24:29;67.23;44.47;83.29;;
49568;Laerm;35474;51.032;6.998;2023-05-16T03:26:56;62.33;43.19;72.11;;
49568;Laerm;35474;51.032;6.998;2023-05-16T03:29:22;64.83;48.64;73.11;;
49568;Laerm;35474;51.032;6.998;2023-05-16T03:31:49;64.55;44.27;72.86;;
49568;Laerm;35474;51.032;6.998;2023-05-16T03:34:15;63.86;43.89;75.30;;
49568;Laerm;35474;51.032;6.998;2023-05-16T03:36:42;61.99;46.45;77.81;;
49568;Laerm;35474;51.032;6.998;2023-05-16T03:39:08;63.19;44.11;78.83;;
49568;Laerm;35474;51.032;6.998;2023-05-16T03:41:35;65.03;45.14;74.11;;
49568;Laerm;35474;51.032;6.998;2023-05-16T03:44:01;63.16;44.73;72.61;;
49568;Laerm;35474;51.032;6.998;2023-05-16T03:46:29;72.29;47.20;92.14;;
49568;Laerm;35474;51.032;6.998;2023-05-16T03:48:55;65.30;45.60;79.02;;
49568;Laerm;35474;51.032;6.998;2023-05-16T03:51:21;64.00;45.42;75.25;;
49568;Laerm;35474;51.032;6.998;2023-05-16T03:53:48;63.66;43.81;73.98;;
49568;Laerm;35474;51.032;6.998;2023-05-16T03:56:15;62.96;44.47;77.15;;
49568;Laerm;35474;51.032;6.998;2023-05-16T03:58:41;66.71;43.77;83.85;;
49568;Laerm;35474;51.032;6.998;2023-05-16T04:01:08;63.33;44.19;74.25;;
49568;Laerm;35474;51.032;6.998;2023-05-16T04:03:34;62.38;43.14;73.40;;
49568;Laerm;35474;51.032;6.998;2023-05-16T04:06:01;68.01;47.18;85.80;;
49568;Laerm;35474;51.032;6.998;2023-05-16T04:08:29;71.26;46.05;89.46;;
49568;Laerm;35474;51.032;6.998;2023-05-16T04:10:57;67.61;47.34;86.62;;
49568;Laerm;35474;51.032;6.998;2023-05-16T04:13:23;65.86;46.97;75.67;;
49568;Laerm;35474;51.032;6.998;2023-05-16T04:15:50;63.08;43.90;76.23;;
49568;Laerm;35474;51.032;6.998;2023-05-16T04:18:17;66.03;44.35;76.43;;
49568;Laerm;35474;51.032;6.998;2023-05-16T04:20:43;65.36;46.71;80.32;;
49568;Laerm;35474;51.032;6.998;2023-05-16T04:23:12;66.45;49.03;82.71;;
49568;Laerm;35474;51.032;6.998;2023-05-16T04:25:39;66.91;44.47;88.78;;
49568;Laerm;35474;51.032;6.998;2023-05-16T04:28:05;64.46;45.07;74.17;;
49568;Laerm;35474;51.032;6.998;2023-05-16T04:30:32;69.46;51.20;87.15;;
49568;Laerm;35474;51.032;6.998;2023-05-16T04:32:59;66.35;46.10;80.53;;
49568;Laerm;35474;51.032;6.998;2023-05-16T04:35:26;64.69;47.30;72.39;;
49568;Laerm;35474;51.032;6.998;2023-05-16T04:37:54;66.21;44.73;76.33;;
49568;Laerm;35474;51.032;6.998;2023-05-16T04:40:21;66.15;45.83;80.67;;
49568;Laerm;35474;51.032;6.998;2023-05-16T04:42:47;65.64;47.20;73.19;;
49568;Laerm;35474;51.032;6.998;2023-05-16T04:45:14;66.89;48.52;82.68;;
49568;Laerm;35474;51.032;6.998;2023-05-16T04:47:40;66.96;47.38;79.40;;
49568;Laerm;35474;51.032;6.998;2023-05-16T04:50:07;65.40;48.08;75.98;;
49568;Laerm;35474;51.032;6.998;2023-05-16T04:52:34;66.22;55.42;72.39;;
49568;Laerm;35474;51.032;6.998;2023-05-16T04:55:02;65.44;45.51;73.82;;
49568;Laerm;35474;51.032;6.998;2023-05-16T04:57:29;67.28;49.96;78.76;;
49568;Laerm;35474;51.032;6.998;2023-05-16T04:59:55;66.51;52.28;75.49;;
49568;Laerm;35474;51.032;6.998;2023-05-16T05:02:22;66.83;47.83;78.77;;
49568;Laerm;35474;51.032;6.998;2023-05-16T05:04:49;66.22;49.71;76.66;;
49568;Laerm;35474;51.032;6.998;2023-05-16T05:07:15;67.02;48.25;76.47;;
49568;Laerm;35474;51.032;6.998;2023-05-16T05:09:42;65.92;45.63;80.27;;
49568;Laerm;35474;51.032;6.998;2023-05-16T05:12:08;67.31;55.82;81.23;;
49568;Laerm;35474;51.032;6.998;2023-05-16T05:14:35;66.94;52.78;78.26;;
49568;Laerm;35474;51.032;6.998;2023-05-16T05:17:01;66.66;49.27;73.77;;
49568;Laerm;35474;51.032;6.998;2023-05-16T05:19:29;64.75;46.78;71.73;;
49568;Laerm;35474;51.032;6.998;2023-05-16T05:21:56;65.41;45.75;72.93;;
49568;Laerm;35474;51.032;6.998;2023-05-16T05:24:22;66.30;46.02;72.73;;
49568;Laerm;35474;51.032;6.998;2023-05-16T05:26:49;66.57;49.07;80.68;;
49568;Laerm;35474;51.032;6.998;2023-05-16T05:29:15;64.82;52.59;75.68;;
49568;Laerm;35474;51.032;6.998;2023-05-16T05:31:42;67.03;52.71;75.41;;
49568;Laerm;35474;51.032;6.998;2023-05-16T05:34:09;66.62;51.53;74.34;;
49568;Laerm;35474;51.032;6.998;2023-05-16T05:36:35;65.54;52.91;75.60;;
49568;Laerm;35474;51.032;6.998;2023-05-16T05:39:01;65.84;47.96;72.41;;
49568;Laerm;35474;51.032;6.998;2023-05-16T05:41:28;65.40;53.44;73.76;;
49568;Laerm;35474;51.032;6.998;2023-05-16T05:43:56;67.22;53.10;76.89;;
49568;Laerm;35474;51.032;6.998;2023-05-16T05:46:26;65.60;50.27;74.69;;
49568;Laerm;35474;51.032;6.998;2023-05-16T05:48:52;64.86;47.00;74.25;;
49568;Laerm;35474;51.032;6.998;2023-05-16T05:51:19;67.09;56.15;79.82;;
49568;Laerm;35474;51.032;6.998;2023-05-16T05:53:45;66.60;57.23;77.44;;
49568;Laerm;35474;51.032;6.998;2023-05-16T05:56:14;66.02;56.39;77.19;;
49568;Laerm;35474;51.032;6.998;2023-05-16T05:58:40;66.77;55.30;76.89;;
49568;Laerm;35474;51.032;6.998;2023-05-16T06:01:07;66.23;56.66;75.35;;
49568;Laerm;35474;51.032;6.998;2023-05-16T06:03:34;64.77;52.88;76.69;;
49568;Laerm;35474;51.032;6.998;2023-05-16T06:06:00;65.51;50.50;73.02;;
49568;Laerm;35474;51.032;6.998;2023-05-16T06:08:27;65.69;52.53;77.28;;
49568;Laerm;35474;51.032;6.998;2023-05-16T06:10:55;66.26;50.14;73.18;;
49568;Laerm;35474;51.032;6.998;2023-05-16T06:13:21;67.54;50.85;82.49;;
49568;Laerm;35474;51.032;6.998;2023-05-16T06:15:51;66.98;52.26;78.59;;
49568;Laerm;35474;51.032;6.998;2023-05-16T06:18:17;66.11;52.29;74.17;;
49568;Laerm;35474;51.032;6.998;2023-05-16T06:20:44;67.05;51.63;75.16;;
49568;Laerm;35474;51.032;6.998;2023-05-16T06:23:10;66.83;54.85;75.00;;
49568;Laerm;35474;51.032;6.998;2023-05-16T06:25:37;64.52;47.00;71.81;;
49568;Laerm;35474;51.032;6.998;2023-05-16T06:28:04;67.07;51.04;77.02;;
49568;Laerm;35474;51.032;6.998;2023-05-16T06:32:35;66.49;46.87;81.26;;
49568;Laerm;35474;51.032;6.998;2023-05-16T06:35:01;68.04;58.98;83.88;;
49568;Laerm;35474;51.032;6.998;2023-05-16T06:37:28;67.07;53.07;73.93;;
49568;Laerm;35474;51.032;6.998;2023-05-16T06:39:54;65.80;48.92;75.41;;
49568;Laerm;35474;51.032;6.998;2023-05-16T06:42:21;67.17;51.23;79.70;;
49568;Laerm;35474;51.032;6.998;2023-05-16T06:44:47;65.30;48.64;72.64;;
49568;Laerm;35474;51.032;6.998;2023-05-16T06:47:14;66.39;53.43;81.77;;
49568;Laerm;35474;51.032;6.998;2023-05-16T06:49:41;68.06;59.37;82.36;;
49568;Laerm;35474;51.032;6.998;2023-05-16T06:52:07;65.93;54.42;77.08;;
49568;Laerm;35474;51.032;6.998;2023-05-16T06:54:34;66.13;50.55;80.95;;
49568;Laerm;35474;51.032;6.998;2023-05-16T06:57:00;66.10;49.07;76.42;;
49568;Laerm;35474;51.032;6.998;2023-05-16T06:59:28;65.55;50.13;76.00;;
49568;Laerm;35474;51.032;6.998;2023-05-16T07:01:57;66.32;50.63;75.35;;
49568;Laerm;35474;51.032;6.998;2023-05-16T07:04:23;64.82;51.40;72.50;;
49568;Laerm;35474;51.032;6.998;2023-05-16T07:06:50;66.18;51.40;74.32;;
49568;Laerm;35474;51.032;6.998;2023-05-16T07:09:16;66.67;49.72;80.05;;
49568;Laerm;35474;51.032;6.998;2023-05-16T07:11:43;63.71;51.30;75.45;;
49568;Laerm;35474;51.032;6.998;2023-05-16T07:14:09;66.18;51.78;75.18;;
49568;Laerm;35474;51.032;6.998;2023-05-16T07:16:35;65.96;52.17;81.37;;
49568;Laerm;35474;51.032;6.998;2023-05-16T07:19:02;79.35;55.94;101.48;;
49568;Laerm;35474;51.032;6.998;2023-05-16T07:21:29;66.56;52.48;75.67;;
49568;Laerm;35474;51.032;6.998;2023-05-16T07:23:56;65.29;47.02;77.92;;
49568;Laerm;35474;51.032;6.998;2023-05-16T07:26:22;69.05;49.35;88.19;;
49568;Laerm;35474;51.032;6.998;2023-05-16T07:28:49;69.11;50.82;86.55;;
49568;Laerm;35474;51.032;6.998;2023-05-16T07:31:16;75.38;51.30;93.16;;
49568;Laerm;35474;51.032;6.998;2023-05-16T07:33:43;67.00;53.15;84.63;;
49568;Laerm;35474;51.032;6.998;2023-05-16T07:36:12;64.23;49.04;77.33;;
49568;Laerm;35474;51.032;6.998;2023-05-16T07:38:42;65.30;47.88;72.65;;
49568;Laerm;35474;51.032;6.998;2023-05-16T07:41:09;65.94;50.02;74.24;;
49568;Laerm;35474;51.032;6.998;2023-05-16T07:43:35;65.75;53.50;75.43;;
49568;Laerm;35474;51.032;6.998;2023-05-16T07:46:02;65.97;54.87;73.32;;
49568;Laerm;35474;51.032;6.998;2023-05-16T07:48:28;64.30;51.72;72.45;;
49568;Laerm;35474;51.032;6.998;2023-05-16T07:50:55;65.09;49.66;72.93;;
49568;Laerm;35474;51.032;6.998;2023-05-16T07:53:21;65.33;50.09;82.21;;
49568;Laerm;35474;51.032;6.998;2023-05-16T07:55:48;65.44;53.74;76.46;;
49568;Laerm;35474;51.032;6.998;2023-05-16T07:58:15;65.49;54.66;75.68;;
49568;Laerm;35474;51.032;6.998;2023-05-16T08:00:41;64.88;48.10;76.24;;
49568;Laerm;35474;51.032;6.998;2023-05-16T08:03:08;65.56;53.94;73.23;;
49568;Laerm;35474;51.032;6.998;2023-05-16T08:05:35;65.82;53.01;75.15;;
49568;Laerm;35474;51.032;6.998;2023-05-16T08:08:01;65.39;55.08;73.61;;
49568;Laerm;35474;51.032;6.998;2023-05-16T08:10:28;65.45;47.16;72.87;;
49568;Laerm;35474;51.032;6.998;2023-05-16T08:12:54;65.48;52.82;73.75;;
49568;Laerm;35474;51.032;6.998;2023-05-16T08:15:20;68.02;48.78;94.74;;
49568;Laerm;35474;51.032;6.998;2023-05-16T08:17:47;65.10;51.80;88.01;;
49568;Laerm;35474;51.032;6.998;2023-05-16T08:20:14;65.13;48.61;73.35;;
49568;Laerm;35474;51.032;6.998;2023-05-16T08:22:41;64.67;49.27;70.88;;
49568;Laerm;35474;51.032;6.998;2023-05-16T08:25:08;65.52;56.48;77.53;;
49568;Laerm;35474;51.032;6.998;2023-05-16T08:27:34;64.94;50.51;75.90;;
49568;Laerm;35474;51.032;6.998;2023-05-16T08:30:01;65.08;54.05;78.06;;
49568;Laerm;35474;51.032;6.998;2023-05-16T08:32:28;64.44;53.45;71.24;;
49568;Laerm;35474;51.032;6.998;2023-05-16T08:34:54;63.23;51.58;78.27;;
49568;Laerm;35474;51.032;6.998;2023-05-16T08:37:22;65.93;49.58;75.28;;
49568;Laerm;35474;51.032;6.998;2023-05-16T08:39:48;65.57;50.35;76.87;;
49568;Laerm;35474;51.032;6.998;2023-05-16T08:42:15;63.18;46.45;71.02;;
49568;Laerm;35474;51.032;6.998;2023-05-16T08:44:41;65.45;45.45;76.52;;
49568;Laerm;35474;51.032;6.998;2023-05-16T08:47:15;65.04;52.57;72.19;;
49568;Laerm;35474;51.032;6.998;2023-05-16T08:49:46;66.25;44.82;73.87;;
49568;Laerm;35474;51.032;6.998;2023-05-16T08:52:17;65.41;47.32;78.93;;
49568;Laerm;35474;51.032;6.998;2023-05-16T08:54:45;65.00;51.10;77.77;;
49568;Laerm;35474;51.032;6.998;2023-05-16T08:57:20;65.03;51.09;77.11;;
49568;Laerm;35474;51.032;6.998;2023-05-16T08:59:47;65.67;53.03;82.72;;
49568;Laerm;35474;51.032;6.998;2023-05-16T09:02:14;67.59;47.48;87.17;;
49568;Laerm;35474;51.032;6.998;2023-05-16T09:04:42;65.18;44.76;76.78;;
49568;Laerm;35474;51.032;6.998;2023-05-16T09:07:08;65.74;49.16;74.86;;
49568;Laerm;35474;51.032;6.998;2023-05-16T09:09:36;66.90;51.46;83.56;;
49568;Laerm;35474;51.032;6.998;2023-05-16T09:12:02;64.32;50.43;76.23;;
49568;Laerm;35474;51.032;6.998;2023-05-16T09:14:29;65.97;48.28;80.80;;
49568;Laerm;35474;51.032;6.998;2023-05-16T09:17:05;66.27;52.95;81.44;;
49568;Laerm;35474;51.032;6.998;2023-05-16T09:19:38;68.68;53.45;84.11;;
49568;Laerm;35474;51.032;6.998;2023-05-16T09:22:09;64.33;52.34;74.62;;
49568;Laerm;35474;51.032;6.998;2023-05-16T09:24:40;67.05;55.40;76.78;;
49568;Laerm;35474;51.032;6.998;2023-05-16T09:27:12;66.84;53.90;73.97;;
49568;Laerm;35474;51.032;6.998;2023-05-16T09:29:40;66.23;52.68;77.93;;
49568;Laerm;35474;51.032;6.998;2023-05-16T09:32:15;64.54;55.00;71.89;;
49568;Laerm;35474;51.032;6.998;2023-05-16T09:34:45;65.90;52.60;84.63;;
49568;Laerm;35474;51.032;6.998;2023-05-16T09:37:14;68.32;48.02;86.94;;
49568;Laerm;35474;51.032;6.998;2023-05-16T09:39:45;72.90;48.85;93.78;;
49568;Laerm;35474;51.032;6.998;2023-05-16T09:42:16;65.37;47.55;81.45;;
49568;Laerm;35474;51.032;6.998;2023-05-16T09:44:49;67.37;51.93;83.22;;
49568;Laerm;35474;51.032;6.998;2023-05-16T09:47:20;65.63;48.08;80.69;;
49568;Laerm;35474;51.032;6.998;2023-05-16T09:49:51;65.92;52.47;82.35;;
49568;Laerm;35474;51.032;6.998;2023-05-16T09:52:17;71.51;48.18;95.07;;
49568;Laerm;35474;51.032;6.998;2023-05-16T09:54:45;68.32;54.37;82.92;;
49568;Laerm;35474;51.032;6.998;2023-05-16T09:57:20;67.81;55.81;76.06;;
49568;Laerm;35474;51.032;6.998;2023-05-16T09:59:47;65.59;49.81;76.73;;
49568;Laerm;35474;51.032;6.998;2023-05-16T10:02:13;65.65;51.54;78.78;;
49568;Laerm;35474;51.032;6.998;2023-05-16T10:04:41;64.74;49.88;76.66;;
49568;Laerm;35474;51.032;6.998;2023-05-16T10:07:08;72.80;53.20;90.72;;
49568;Laerm;35474;51.032;6.998;2023-05-16T10:09:35;67.94;50.24;84.14;;
49568;Laerm;35474;51.032;6.998;2023-05-16T10:12:07;65.58;50.92;78.52;;
49568;Laerm;35474;51.032;6.998;2023-05-16T10:14:36;66.64;50.41;80.69;;
49568;Laerm;35474;51.032;6.998;2023-05-16T10:17:03;70.22;51.22;93.55;;
49568;Laerm;35474;51.032;6.998;2023-05-16T10:19:35;64.76;50.87;77.93;;
49568;Laerm;35474;51.032;6.998;2023-05-16T10:22:05;66.56;50.15;78.94;;
49568;Laerm;35474;51.032;6.998;2023-05-16T10:24:43;65.55;48.96;75.71;;
49568;Laerm;35474;51.032;6.998;2023-05-16T10:27:13;66.07;50.27;77.96;;
49568;Laerm;35474;51.032;6.998;2023-05-16T10:29:42;65.32;49.98;71.09;;
49568;Laerm;35474;51.032;6.998;2023-05-16T10:32:22;68.71;47.52;88.47;;
49568;Laerm;35474;51.032;6.998;2023-05-16T10:34:49;62.18;45.60;76.93;;
49568;Laerm;35474;51.032;6.998;2023-05-16T10:37:16;64.62;55.58;80.62;;
49568;Laerm;35474;51.032;6.998;2023-05-16T10:39:44;64.49;55.06;74.93;;
49568;Laerm;35474;51.032;6.998;2023-05-16T10:42:11;64.33;56.77;81.49;;
49568;Laerm;35474;51.032;6.998;2023-05-16T10:44:43;66.13;56.97;82.67;;
49568;Laerm;35474;51.032;6.998;2023-05-16T10:47:27;64.59;51.74;72.61;;
49568;Laerm;35474;51.032;6.998;2023-05-16T10:49:54;65.74;53.97;77.86;;
49568;Laerm;35474;51.032;6.998;2023-05-16T10:52:32;68.33;57.32;85.27;;
49568;Laerm;35474;51.032;6.998;2023-05-16T10:55:01;72.80;55.09;92.08;;
49568;Laerm;35474;51.032;6.998;2023-05-16T10:57:31;67.27;52.31;81.85;;
49568;Laerm;35474;51.032;6.998;2023-05-16T10:59:58;67.29;48.64;83.57;;
49568;Laerm;35474;51.032;6.998;2023-05-16T11:02:29;72.79;55.06;93.10;;
49568;Laerm;35474;51.032;6.998;2023-05-16T11:05:01;75.49;57.91;92.50;;
49568;Laerm;35474;51.032;6.998;2023-05-16T11:07:34;65.70;55.62;80.52;;
49568;Laerm;35474;51.032;6.998;2023-05-16T11:10:07;66.83;49.56;79.23;;
49568;Laerm;35474;51.032;6.998;2023-05-16T11:12:44;64.09;48.76;76.61;;
49568;Laerm;35474;51.032;6.998;2023-05-16T11:15:23;67.07;50.34;88.40;;
49568;Laerm;35474;51.032;6.998;2023-05-16T11:18:09;68.76;53.57;88.55;;
49568;Laerm;35474;51.032;6.998;2023-05-16T11:20:37;64.16;46.29;80.44;;
49568;Laerm;35474;51.032;6.998;2023-05-16T11:23:24;65.80;51.93;92.40;;
49568;Laerm;35474;51.032;6.998;2023-05-16T11:25:56;71.01;47.04;89.05;;
49568;Laerm;35474;51.032;6.998;2023-05-16T11:28:24;66.51;46.28;85.82;;
49568;Laerm;35474;51.032;6.998;2023-05-16T11:30:56;72.78;48.94;93.36;;
49568;Laerm;35474;51.032;6.998;2023-05-16T11:33:23;66.35;54.13;79.82;;
49568;Laerm;35474;51.032;6.998;2023-05-16T11:38:41;66.82;52.41;78.74;;
49568;Laerm;35474;51.032;6.998;2023-05-16T11:41:09;65.27;49.97;80.68;;
49568;Laerm;35474;51.032;6.998;2023-05-16T11:43:44;65.03;47.95;76.12;;
49568;Laerm;35474;51.032;6.998;2023-05-16T11:46:12;71.95;49.12;92.64;;
49568;Laerm;35474;51.032;6.998;2023-05-16T11:48:39;69.00;55.93;91.42;;
49568;Laerm;35474;51.032;6.998;2023-05-16T11:51:08;69.48;51.37;87.86;;
49568;Laerm;35474;51.032;6.998;2023-05-16T11:53:35;66.43;52.64;80.49;;
49568;Laerm;35474;51.032;6.998;2023-05-16T11:56:03;65.56;49.85;82.61;;
49568;Laerm;35474;51.032;6.998;2023-05-16T11:58:30;68.41;48.48;87.24;;
49568;Laerm;35474;51.032;6.998;2023-05-16T12:00:56;69.00;47.98;85.16;;
49568;Laerm;35474;51.032;6.998;2023-05-16T12:03:23;67.49;53.67;97.40;;
49568;Laerm;35474;51.032;6.998;2023-05-16T12:05:54;68.75;56.60;84.19;;
49568;Laerm;35474;51.032;6.998;2023-05-16T12:08:23;70.35;57.99;87.73;;
49568;Laerm;35474;51.032;6.998;2023-05-16T12:10:51;71.17;60.94;85.06;;
49568;Laerm;35474;51.032;6.998;2023-05-16T12:13:20;74.39;60.16;92.34;;
49568;Laerm;35474;51.032;6.998;2023-05-16T12:15:48;71.43;56.00;86.25;;
49568;Laerm;35474;51.032;6.998;2023-05-16T12:18:16;73.57;60.88;92.14;;
49568;Laerm;35474;51.032;6.998;2023-05-16T12:20:47;71.21;55.46;89.96;;
49568;Laerm;35474;51.032;6.998;2023-05-16T12:23:13;72.37;57.47;91.08;;
49568;Laerm;35474;51.032;6.998;2023-05-16T12:25:45;65.48;57.16;81.33;;
49568;Laerm;35474;51.032;6.998;2023-05-16T12:28:13;66.66;49.97;77.77;;
49568;Laerm;35474;51.032;6.998;2023-05-16T12:30:41;70.33;52.51;89.38;;
49568;Laerm;35474;51.032;6.998;2023-05-16T12:33:10;67.43;54.56;85.22;;
49568;Laerm;35474;51.032;6.998;2023-05-16T12:35:39;69.48;57.98;85.32;;
49568;Laerm;35474;51.032;6.998;2023-05-16T12:38:11;73.38;50.38;94.61;;
49568;Laerm;35474;51.032;6.998;2023-05-16T12:40:42;70.02;52.13;92.34;;
49568;Laerm;35474;51.032;6.998;2023-05-16T12:43:16;72.78;51.70;91.79;;
49568;Laerm;35474;51.032;6.998;2023-05-16T12:45:54;69.57;52.48;92.24;;
49568;Laerm;35474;51.032;6.998;2023-05-16T12:48:23;69.30;53.58;90.39;;
49568;Laerm;35474;51.032;6.998;2023-05-16T12:50:49;72.08;51.34;91.89;;
49568;Laerm;35474;51.032;6.998;2023-05-16T12:53:17;77.58;59.64;94.43;;
49568;Laerm;35474;51.032;6.998;2023-05-16T12:55:44;75.28;52.34;94.22;;
49568;Laerm;35474;51.032;6.998;2023-05-16T12:58:10;76.94;49.41;97.85;;
49568;Laerm;35474;51.032;6.998;2023-05-16T13:00:38;68.88;48.90;88.70;;
49568;Laerm;35474;51.032;6.998;2023-05-16T13:03:05;65.53;55.36;82.06;;
49568;Laerm;35474;51.032;6.998;2023-05-16T13:05:33;65.74;54.97;78.10;;
49568;Laerm;35474;51.032;6.998;2023-05-16T13:08:01;69.10;51.72;90.34;;
49568;Laerm;35474;51.032;6.998;2023-05-16T13:10:28;65.69;50.05;78.42;;
49568;Laerm;35474;51.032;6.998;2023-05-16T13:12:54;65.01;52.26;73.33;;
49568;Laerm;35474;51.032;6.998;2023-05-16T13:15:23;65.12;56.29;76.36;;
49568;Laerm;35474;51.032;6.998;2023-05-16T13:17:51;65.76;46.15;74.75;;
49568;Laerm;35474;51.032;6.998;2023-05-16T13:20:18;66.48;56.05;74.61;;
49568;Laerm;35474;51.032;6.998;2023-05-16T13:22:45;65.24;51.87;74.62;;
49568;Laerm;35474;51.032;6.998;2023-05-16T13:25:12;74.66;51.08;92.98;;
49568;Laerm;35474;51.032;6.998;2023-05-16T13:27:38;65.70;54.76;75.98;;
49568;Laerm;35474;51.032;6.998;2023-05-16T13:30:05;65.72;54.31;72.91;;
49568;Laerm;35474;51.032;6.998;2023-05-16T13:32:32;68.35;51.65;87.31;;
49568;Laerm;35474;51.032;6.998;2023-05-16T13:34:59;65.63;52.56;79.67;;
49568;Laerm;35474;51.032;6.998;2023-05-16T13:37:25;65.98;50.24;81.29;;
49568;Laerm;35474;51.032;6.998;2023-05-16T13:39:52;68.96;46.23;88.39;;
49568;Laerm;35474;51.032;6.998;2023-05-16T13:42:20;86.97;57.32;103.19;;
49568;Laerm;35474;51.032;6.998;2023-05-16T13:44:46;76.84;52.43;95.28;;
49568;Laerm;35474;51.032;6.998;2023-05-16T13:47:13;66.08;52.34;72.42;;
49568;Laerm;35474;51.032;6.998;2023-05-16T13:49:40;67.80;55.39;84.93;;
49568;Laerm;35474;51.032;6.998;2023-05-16T13:52:06;72.55;55.16;92.80;;
49568;Laerm;35474;51.032;6.998;2023-05-16T13:54:33;70.31;54.78;91.84;;
49568;Laerm;35474;51.032;6.998;2023-05-16T13:57:00;68.95;57.60;87.84;;
49568;Laerm;35474;51.032;6.998;2023-05-16T13:59:27;67.81;51.80;80.24;;
49568;Laerm;35474;51.032;6.998;2023-05-16T14:02:14;78.43;51.03;99.81;;
49568;Laerm;35474;51.032;6.998;2023-05-16T14:04:40;67.43;54.32;75.94;;
49568;Laerm;35474;51.032;6.998;2023-05-16T14:07:07;66.09;47.50;81.82;;
49568;Laerm;35474;51.032;6.998;2023-05-16T14:09:34;66.06;52.23;78.74;;